CheckWX is a tool to help pilots better visualize weather data.  It is not intended as a substitute for an official pre-flight weather briefing.

19:39:06 UTC

KGUS METAR
Grissom ARB Airport
Peru, Indiana, USA
Current

33 mins ago

KGUS 121906Z 31012KT 10SM SCT014 BKN021 OVC026 M06/M10 A3041 RMK AO2A CIG 016V023 CIG 019 RWY05 SLP315 $
Observed
Nov-12 @ 19:06 UTC
Wind
  • 310° at 12 KTS
Visibility
10 SM
Flight Rules
MVFR
Cloud Levels
  • Scattered at 1,400' AGL
  • Broken at 2,100' AGL
  • Overcast at 2,600' AGL
Temperature
-6°C / 21°F
Dewpoint
-10°C / 14°F
Humidity
74%
Altimeter
30.41" Hg
Pressure
1029.82 hPa
Previous

43 mins ago

KGUS 121856Z 30012KT 10SM SCT015 OVC022 M06/M10 A3041 RMK AO2A SNB01E11 CIG 015V022 CIG 016 RWY05 SLP315 P0000 T10641105 $
Observed
Nov-12 @ 18:56 UTC
Wind
  • 300° at 12 KTS
Visibility
10 SM
Flight Rules
MVFR
Cloud Levels
  • Scattered at 1,500' AGL
  • Overcast at 2,200' AGL
Temperature
-6°C / 21°F
Dewpoint
-11°C / 12°F
Humidity
68%
Altimeter
30.41" Hg
Pressure
1029.82 hPa
Current Rain
0.01"
Previous

1 hour ago

KGUS 121831Z 31012KT 10SM BKN015 OVC024 M06/M10 A3042 RMK AO2A SLP318 $
Observed
Nov-12 @ 18:31 UTC
Wind
  • 310° at 12 KTS
Visibility
10 SM
Flight Rules
MVFR
Cloud Levels
  • Broken at 1,500' AGL
  • Overcast at 2,400' AGL
Temperature
-6°C / 21°F
Dewpoint
-10°C / 14°F
Humidity
74%
Altimeter
30.42" Hg
Pressure
1030.12 hPa